createdAt,value
2022-07-31T00:00:19.113Z,10.80
2022-07-31T00:02:46.656Z,7.20
2022-07-31T00:05:13.509Z,6.43
2022-07-31T00:07:40.785Z,6.55
2022-07-31T00:10:08.158Z,7.65
2022-07-31T00:12:35.082Z,6.32
2022-07-31T00:15:07.481Z,6.63
2022-07-31T00:17:34.579Z,6.97
2022-07-31T00:20:01.990Z,6.28
2022-07-31T00:22:28.786Z,6.18
2022-07-31T00:24:55.541Z,6.20
2022-07-31T00:27:23.604Z,6.97
2022-07-31T00:29:50.795Z,7.68
2022-07-31T00:32:17.573Z,9.57
2022-07-31T00:34:44.320Z,7.75
2022-07-31T00:37:11.271Z,6.88
2022-07-31T00:39:38.403Z,8.40
2022-07-31T00:42:05.869Z,7.82
2022-07-31T00:44:32.623Z,7.82
2022-07-31T00:47:00.707Z,8.18
2022-07-31T00:49:37.352Z,6.50
2022-07-31T00:52:05.686Z,8.63
2022-07-31T00:54:33.210Z,7.35
2022-07-31T00:57:00.309Z,11.52
2022-07-31T00:59:28.513Z,7.68
2022-07-31T01:01:55.994Z,7.25
2022-07-31T01:04:22.841Z,7.18
2022-07-31T01:06:49.722Z,9.43
2022-07-31T01:09:19.235Z,9.57
2022-07-31T01:12:10.309Z,8.10
2022-07-31T01:14:45.920Z,14.00
2022-07-31T01:17:13.027Z,7.10
2022-07-31T01:19:43.573Z,7.55
2022-07-31T01:22:34.561Z,8.10
2022-07-31T01:25:33.391Z,8.07
2022-07-31T01:28:27.572Z,12.93
2022-07-31T01:31:24.152Z,10.02
2022-07-31T01:33:59.549Z,7.95
2022-07-31T01:36:34.631Z,10.93
2022-07-31T01:39:02.465Z,17.10
2022-07-31T01:41:36.060Z,12.68
2022-07-31T01:44:05.317Z,14.52
2022-07-31T01:46:37.498Z,18.00
2022-07-31T01:49:09.536Z,16.10
2022-07-31T01:51:39.067Z,12.77
2022-07-31T01:54:06.472Z,16.52
2022-07-31T01:56:34.784Z,13.13
2022-07-31T01:59:03.050Z,11.63
2022-07-31T02:01:31.626Z,11.75
2022-07-31T02:04:00.713Z,12.27
2022-07-31T02:06:28.327Z,12.07
2022-07-31T02:08:56.534Z,11.30
2022-07-31T02:11:23.803Z,13.43
2022-07-31T02:13:53.173Z,12.35
2022-07-31T02:16:21.109Z,11.77
2022-07-31T02:18:50.980Z,9.55
2022-07-31T02:21:17.993Z,10.23
2022-07-31T02:23:45.077Z,10.40
2022-07-31T02:26:13.170Z,12.88
2022-07-31T02:28:43.683Z,11.27
2022-07-31T02:31:12.694Z,11.43
2022-07-31T02:33:42.586Z,18.80
2022-07-31T02:36:11.575Z,13.57
2022-07-31T02:38:40.756Z,10.70
2022-07-31T02:41:09.557Z,10.40
2022-07-31T02:43:37.571Z,11.23
2022-07-31T02:46:05.831Z,12.88
2022-07-31T02:48:33.189Z,16.92
2022-07-31T02:51:00.104Z,15.27
2022-07-31T02:53:27.188Z,12.20
2022-07-31T02:55:54.250Z,9.68
2022-07-31T02:58:21.049Z,10.63
2022-07-31T03:00:47.914Z,11.95
2022-07-31T03:03:14.650Z,9.32
2022-07-31T03:05:41.489Z,11.35
2022-07-31T03:08:08.218Z,14.77
2022-07-31T03:10:34.925Z,9.48
2022-07-31T03:13:03.591Z,14.85
2022-07-31T03:15:31.552Z,8.98
2022-07-31T03:17:59.135Z,11.10
2022-07-31T03:20:27.480Z,9.02
2022-07-31T03:22:54.501Z,8.10
2022-07-31T03:25:22.330Z,7.32
2022-07-31T03:27:56.621Z,7.22
2022-07-31T03:30:27.418Z,8.57
2022-07-31T03:32:55.552Z,8.75
2022-07-31T03:35:24.034Z,8.02
2022-07-31T03:37:50.993Z,7.28
2022-07-31T03:40:17.753Z,8.50
2022-07-31T03:42:45.047Z,7.18
2022-07-31T03:45:12.932Z,6.78
2022-07-31T03:47:39.972Z,8.65
2022-07-31T03:50:07.920Z,6.57
2022-07-31T03:52:36.112Z,6.53
2022-07-31T03:55:02.981Z,7.22
2022-07-31T03:57:31.137Z,9.90
2022-07-31T04:00:00.784Z,6.75
2022-07-31T04:02:28.900Z,6.68
2022-07-31T04:04:57.302Z,6.70
2022-07-31T04:07:24.510Z,8.52
2022-07-31T04:09:51.545Z,6.47
2022-07-31T04:12:18.381Z,6.78
2022-07-31T04:14:45.367Z,7.78
2022-07-31T04:17:12.190Z,6.28
2022-07-31T04:19:39.296Z,5.43
2022-07-31T04:22:06.969Z,5.50
2022-07-31T04:24:34.150Z,6.32
2022-07-31T04:27:01.129Z,5.38
2022-07-31T04:29:29.502Z,5.30
2022-07-31T04:31:56.926Z,5.03
2022-07-31T04:34:23.672Z,5.22
2022-07-31T04:36:50.519Z,5.88
2022-07-31T04:39:17.410Z,5.38
2022-07-31T04:41:44.376Z,8.52
2022-07-31T04:44:11.466Z,4.75
2022-07-31T04:46:38.404Z,5.47
2022-07-31T04:49:05.275Z,6.32
2022-07-31T04:51:32.274Z,6.38
2022-07-31T04:53:58.937Z,7.40
2022-07-31T04:56:35.986Z,6.32
2022-07-31T04:59:05.628Z,6.95
2022-07-31T05:01:33.907Z,7.72
2022-07-31T05:04:01.598Z,7.57
2022-07-31T05:06:45.313Z,8.25
2022-07-31T05:09:18.809Z,12.15
2022-07-31T05:11:47.250Z,7.78
2022-07-31T05:14:16.656Z,8.23
2022-07-31T05:16:44.782Z,7.03
2022-07-31T05:19:14.885Z,7.43
2022-07-31T05:21:53.198Z,9.80
2022-07-31T05:24:22.568Z,11.77
2022-07-31T05:26:59.753Z,10.82
2022-07-31T05:29:26.838Z,8.48
2022-07-31T05:32:09.813Z,10.00
2022-07-31T05:34:36.659Z,8.48
2022-07-31T05:37:03.772Z,11.65
2022-07-31T05:39:30.775Z,9.02
2022-07-31T05:41:57.620Z,9.77
2022-07-31T05:44:24.599Z,11.52
2022-07-31T05:49:17.840Z,12.13
2022-07-31T05:51:45.119Z,11.15
2022-07-31T05:54:11.824Z,10.02
2022-07-31T05:56:38.553Z,11.82
2022-07-31T05:59:05.386Z,10.77
2022-07-31T06:01:32.170Z,12.50
2022-07-31T06:03:58.961Z,9.85
2022-07-31T06:06:25.920Z,10.57
2022-07-31T06:08:52.706Z,11.32
2022-07-31T06:11:19.454Z,13.52
2022-07-31T06:13:46.196Z,13.88
2022-07-31T06:16:14.335Z,13.52
2022-07-31T06:18:41.732Z,13.20
2022-07-31T06:21:08.485Z,14.32
2022-07-31T06:23:35.185Z,13.20
2022-07-31T06:26:01.994Z,13.60
2022-07-31T06:28:47.977Z,13.13
2022-07-31T06:31:18.138Z,13.38
2022-07-31T06:33:48.437Z,12.40
2022-07-31T06:36:16.645Z,12.88
2022-07-31T06:38:43.353Z,11.90
2022-07-31T06:41:10.096Z,16.23
2022-07-31T06:43:36.832Z,13.50
2022-07-31T06:46:03.743Z,11.00
2022-07-31T06:48:30.422Z,13.80
2022-07-31T06:51:27.850Z,12.07
2022-07-31T06:53:43.783Z,12.90
2022-07-31T06:56:10.490Z,13.07
2022-07-31T06:58:37.210Z,15.25
2022-07-31T07:01:04.010Z,12.65
2022-07-31T07:03:30.741Z,14.70
2022-07-31T07:05:57.468Z,13.25
2022-07-31T07:08:25.100Z,9.98
2022-07-31T07:10:51.862Z,11.85
2022-07-31T07:13:18.623Z,11.82
2022-07-31T07:15:45.394Z,11.60
2022-07-31T07:18:12.144Z,12.25
2022-07-31T07:20:39.132Z,11.85
2022-07-31T07:23:06.107Z,12.82
2022-07-31T07:25:33.246Z,13.05
2022-07-31T07:28:00.130Z,10.57
2022-07-31T07:30:28.603Z,11.95
2022-07-31T07:32:55.356Z,10.15
2022-07-31T07:35:22.383Z,14.18
2022-07-31T07:37:49.125Z,9.52
2022-07-31T07:40:17.013Z,9.82
2022-07-31T07:42:43.832Z,10.50
2022-07-31T07:45:10.896Z,10.38
2022-07-31T07:48:04.899Z,10.32
2022-07-31T07:50:26.686Z,10.25
2022-07-31T07:52:55.761Z,9.93
2022-07-31T07:55:22.465Z,9.27
2022-07-31T07:57:49.508Z,9.95
2022-07-31T08:00:16.285Z,8.93
2022-07-31T08:02:44.847Z,10.23
2022-07-31T08:05:29.760Z,10.13
2022-07-31T08:07:56.438Z,9.45
2022-07-31T08:10:23.199Z,7.55
2022-07-31T08:12:50.806Z,8.43
2022-07-31T08:15:17.514Z,7.32
2022-07-31T08:17:44.185Z,6.45
2022-07-31T08:20:11.765Z,7.13
2022-07-31T08:22:38.525Z,7.32
2022-07-31T08:25:05.991Z,7.68
2022-07-31T08:27:39.874Z,7.72
2022-07-31T08:30:08.311Z,6.78
2022-07-31T08:32:35.088Z,7.35
2022-07-31T08:35:02.245Z,6.63
2022-07-31T08:37:51.761Z,5.72
2022-07-31T08:40:18.219Z,5.70
2022-07-31T08:42:46.650Z,5.03
2022-07-31T08:45:14.908Z,6.10
2022-07-31T08:47:46.361Z,6.03
2022-07-31T08:50:15.319Z,3.67
2022-07-31T08:52:45.493Z,5.47
2022-07-31T08:55:54.921Z,10.88
2022-07-31T08:57:59.993Z,7.70
2022-07-31T09:00:28.716Z,5.90
2022-07-31T09:02:55.956Z,8.57
2022-07-31T09:05:24.531Z,6.15
2022-07-31T09:07:51.900Z,3.58
2022-07-31T09:10:36.963Z,5.57
2022-07-31T09:13:17.836Z,4.13
2022-07-31T09:15:44.724Z,3.40
2022-07-31T09:18:22.188Z,7.95
2022-07-31T09:20:58.561Z,5.50
2022-07-31T09:23:26.843Z,6.50
2022-07-31T09:26:02.248Z,6.28
2022-07-31T09:28:59.865Z,7.13
2022-07-31T09:31:32.854Z,5.03
2022-07-31T09:33:59.911Z,7.75
2022-07-31T09:36:27.100Z,6.95
2022-07-31T09:38:56.328Z,4.60
2022-07-31T09:41:56.606Z,6.25
2022-07-31T09:44:11.112Z,3.58
2022-07-31T09:46:48.411Z,3.58
2022-07-31T09:49:15.996Z,6.43
2022-07-31T09:51:45.317Z,7.63
2022-07-31T09:54:23.326Z,5.70
2022-07-31T09:56:50.367Z,5.60
2022-07-31T09:59:17.560Z,5.57
2022-07-31T10:01:48.718Z,6.60
2022-07-31T10:04:20.754Z,5.75
2022-07-31T10:06:48.938Z,6.10
2022-07-31T10:09:19.173Z,5.80
2022-07-31T10:11:47.159Z,7.03
2022-07-31T10:14:23.157Z,3.97
2022-07-31T10:16:54.673Z,5.22
2022-07-31T10:19:23.193Z,6.20
2022-07-31T10:21:57.435Z,7.75
2022-07-31T10:24:28.413Z,3.08
2022-07-31T10:27:01.201Z,4.03
2022-07-31T10:29:39.446Z,3.05
2022-07-31T10:32:07.617Z,4.72
2022-07-31T10:34:35.107Z,5.10
2022-07-31T10:37:18.925Z,3.63
2022-07-31T10:40:06.653Z,4.10
2022-07-31T10:43:11.727Z,5.68
2022-07-31T10:45:52.253Z,3.05
2022-07-31T10:48:20.041Z,3.33
2022-07-31T10:50:47.696Z,7.50
2022-07-31T10:53:17.957Z,3.53
2022-07-31T10:55:45.036Z,4.40
2022-07-31T10:58:16.649Z,3.20
2022-07-31T11:00:43.783Z,4.45
2022-07-31T11:03:22.003Z,5.18
2022-07-31T11:06:01.869Z,4.63
2022-07-31T11:08:40.321Z,4.72
2022-07-31T11:11:07.031Z,5.43
2022-07-31T11:13:45.573Z,4.60
2022-07-31T11:16:12.376Z,3.20
2022-07-31T11:18:39.356Z,4.78
2022-07-31T11:21:38.048Z,3.05
2022-07-31T11:24:02.941Z,2.28
2022-07-31T11:26:40.797Z,3.65
2022-07-31T11:30:02.013Z,3.00
2022-07-31T11:32:22.879Z,2.67
2022-07-31T11:34:57.055Z,9.30
2022-07-31T11:37:24.874Z,2.67
2022-07-31T11:39:53.418Z,3.03
2022-07-31T11:42:26.585Z,3.33
2022-07-31T11:45:11.134Z,4.70
2022-07-31T11:48:11.069Z,2.95
2022-07-31T11:50:43.060Z,4.10
2022-07-31T11:53:10.677Z,4.00
2022-07-31T11:55:53.188Z,3.22
2022-07-31T11:58:22.577Z,3.85
2022-07-31T12:00:51.552Z,1.80
2022-07-31T12:03:20.657Z,2.67
2022-07-31T12:05:48.960Z,2.67
2022-07-31T12:08:16.229Z,1.85
2022-07-31T12:10:45.397Z,2.00
2022-07-31T12:13:18.129Z,2.05
2022-07-31T12:16:07.966Z,4.50
2022-07-31T12:18:56.969Z,9.75
2022-07-31T12:21:50.181Z,1.52
2022-07-31T12:24:16.888Z,3.08
2022-07-31T12:26:56.265Z,2.38
2022-07-31T12:29:38.110Z,4.05
2022-07-31T12:32:06.868Z,1.80
2022-07-31T12:34:43.579Z,3.65
2022-07-31T12:37:15.145Z,4.88
2022-07-31T12:39:54.350Z,1.67
2022-07-31T12:42:39.086Z,3.97
2022-07-31T12:45:19.962Z,1.95
2022-07-31T12:47:51.653Z,4.05
2022-07-31T12:50:22.825Z,2.97
2022-07-31T12:52:49.699Z,1.77
2022-07-31T12:55:17.375Z,3.40
2022-07-31T12:57:50.299Z,2.33
2022-07-31T13:00:20.159Z,3.65
2022-07-31T13:02:46.929Z,3.13
2022-07-31T13:05:13.701Z,2.15
2022-07-31T13:07:40.486Z,1.88
2022-07-31T13:10:20.975Z,1.77
2022-07-31T13:12:50.968Z,3.35
2022-07-31T13:15:20.034Z,2.35
2022-07-31T13:17:50.243Z,3.30
2022-07-31T13:20:18.236Z,2.63
2022-07-31T13:22:45.044Z,4.18
2022-07-31T13:25:11.866Z,4.50
2022-07-31T13:27:38.622Z,3.85
2022-07-31T13:30:06.048Z,4.07
2022-07-31T13:32:32.873Z,4.88
2022-07-31T13:35:24.197Z,2.83
2022-07-31T13:37:46.920Z,3.00
2022-07-31T13:40:14.438Z,2.55
2022-07-31T13:42:41.164Z,3.70
2022-07-31T13:45:08.942Z,3.92
2022-07-31T13:47:51.769Z,6.00
2022-07-31T13:50:19.687Z,2.80
2022-07-31T13:52:46.425Z,2.63
2022-07-31T13:55:13.262Z,2.55
2022-07-31T13:57:39.973Z,2.72
2022-07-31T14:00:07.463Z,5.68
2022-07-31T14:02:34.572Z,2.42
2022-07-31T14:05:01.432Z,4.03
2022-07-31T14:07:48.301Z,4.38
2022-07-31T14:10:19.869Z,3.70
2022-07-31T14:12:47.101Z,5.80
2022-07-31T14:15:13.917Z,3.80
2022-07-31T14:17:40.606Z,3.97
2022-07-31T14:20:07.926Z,3.90
2022-07-31T14:22:34.663Z,2.00
2022-07-31T14:25:01.630Z,2.28
2022-07-31T14:27:28.336Z,2.47
2022-07-31T14:29:55.201Z,1.95
2022-07-31T14:32:22.284Z,7.30
2022-07-31T14:34:50.117Z,2.00
2022-07-31T14:37:17.086Z,3.20
2022-07-31T14:39:44.264Z,2.17
2022-07-31T14:42:12.148Z,4.93
2022-07-31T14:44:41.582Z,3.00
2022-07-31T14:47:09.746Z,1.70
2022-07-31T14:50:07.046Z,2.10
2022-07-31T14:52:23.801Z,4.28
2022-07-31T14:54:50.681Z,3.88
2022-07-31T14:57:20.213Z,2.88
2022-07-31T14:59:50.178Z,5.68
2022-07-31T15:02:21.915Z,4.10
2022-07-31T15:04:49.893Z,3.22
2022-07-31T15:07:35.065Z,5.63
2022-07-31T15:10:07.977Z,2.22
2022-07-31T15:12:34.942Z,2.90
2022-07-31T15:15:01.944Z,2.55
2022-07-31T15:17:28.736Z,2.13
2022-07-31T15:19:55.522Z,3.80
2022-07-31T15:22:22.303Z,7.00
2022-07-31T15:24:50.210Z,8.77
2022-07-31T15:27:22.142Z,5.30
2022-07-31T15:30:03.612Z,2.97
2022-07-31T15:32:36.144Z,2.65
2022-07-31T15:35:04.714Z,3.67
2022-07-31T15:37:35.454Z,2.22
2022-07-31T15:40:04.334Z,4.57
2022-07-31T15:42:40.173Z,4.25
2022-07-31T15:45:09.402Z,3.33
2022-07-31T15:47:36.418Z,3.03
2022-07-31T15:50:03.603Z,2.70
2022-07-31T15:52:30.377Z,4.28
2022-07-31T15:54:57.039Z,4.90
2022-07-31T15:57:24.356Z,1.95
2022-07-31T15:59:54.408Z,2.03
2022-07-31T16:02:22.104Z,2.70
2022-07-31T16:04:54.299Z,2.28
2022-07-31T16:08:31.638Z,2.45
2022-07-31T16:10:16.476Z,2.83
2022-07-31T16:12:45.612Z,2.75
2022-07-31T16:15:12.835Z,2.75
2022-07-31T16:17:40.089Z,4.35
2022-07-31T16:20:08.935Z,3.10
2022-07-31T16:22:37.048Z,4.55
2022-07-31T16:25:05.393Z,3.67
2022-07-31T16:27:32.303Z,4.68
2022-07-31T16:30:01.284Z,5.85
2022-07-31T16:32:29.699Z,5.85
2022-07-31T16:35:00.650Z,2.83
2022-07-31T16:37:50.879Z,5.85
2022-07-31T16:40:29.239Z,5.22
2022-07-31T16:43:02.318Z,2.80
2022-07-31T16:45:49.522Z,2.45
2022-07-31T16:48:16.257Z,3.65
2022-07-31T16:50:42.961Z,5.63
2022-07-31T16:53:09.703Z,8.43
2022-07-31T16:56:00.033Z,3.78
2022-07-31T16:58:27.571Z,4.30
2022-07-31T17:00:54.458Z,3.45
2022-07-31T17:03:58.669Z,4.82
2022-07-31T17:06:10.363Z,4.82
2022-07-31T17:08:38.156Z,3.90
2022-07-31T17:11:05.373Z,7.47
2022-07-31T17:13:32.445Z,3.72
2022-07-31T17:15:59.180Z,6.35
2022-07-31T17:18:26.058Z,4.78
2022-07-31T17:20:55.740Z,3.95
2022-07-31T17:23:42.635Z,4.45
2022-07-31T17:26:21.444Z,5.82
2022-07-31T17:28:51.759Z,3.13
2022-07-31T17:31:19.489Z,3.65
2022-07-31T17:33:59.038Z,3.88
2022-07-31T17:36:28.560Z,3.13
2022-07-31T17:38:56.052Z,5.18
2022-07-31T17:41:25.393Z,5.35
2022-07-31T17:43:56.397Z,14.02
2022-07-31T17:46:34.263Z,12.27
2022-07-31T17:49:08.247Z,14.07
2022-07-31T17:51:35.346Z,15.23
2022-07-31T17:54:02.156Z,23.15
2022-07-31T17:56:29.082Z,12.40
2022-07-31T17:59:03.589Z,13.23
2022-07-31T18:01:30.676Z,7.65
2022-07-31T18:03:57.466Z,5.68
2022-07-31T18:06:24.192Z,5.78
2022-07-31T18:08:51.645Z,4.78
2022-07-31T18:11:19.605Z,4.47
2022-07-31T18:13:48.042Z,5.70
2022-07-31T18:16:18.722Z,6.95
2022-07-31T18:18:46.217Z,6.53
2022-07-31T18:21:14.042Z,7.47
2022-07-31T18:23:47.266Z,11.77
2022-07-31T18:26:14.865Z,12.75
2022-07-31T18:28:41.794Z,9.43
2022-07-31T18:31:32.353Z,9.32
2022-07-31T18:33:55.596Z,7.13
2022-07-31T18:36:22.397Z,4.30
2022-07-31T18:38:49.281Z,6.80
2022-07-31T18:41:16.164Z,3.92
2022-07-31T18:43:42.849Z,4.32
2022-07-31T18:46:09.835Z,4.03
2022-07-31T18:48:36.604Z,7.30
2022-07-31T18:51:05.133Z,3.70
2022-07-31T18:53:33.144Z,5.53
2022-07-31T18:56:00.161Z,6.57
2022-07-31T18:58:26.971Z,3.13
2022-07-31T19:00:55.255Z,6.85
2022-07-31T19:03:23.523Z,6.63
2022-07-31T19:05:52.778Z,5.03
2022-07-31T19:08:20.265Z,5.30
2022-07-31T19:10:49.746Z,4.40
2022-07-31T19:13:18.894Z,4.13
2022-07-31T19:15:51.504Z,2.78
2022-07-31T19:18:18.679Z,2.83
2022-07-31T19:21:00.404Z,6.45
2022-07-31T19:23:39.077Z,7.63
2022-07-31T19:26:06.181Z,5.40
2022-07-31T19:28:33.391Z,5.63
2022-07-31T19:31:00.328Z,5.90
2022-07-31T19:33:27.476Z,3.20
2022-07-31T19:36:00.906Z,3.50
2022-07-31T19:38:30.008Z,5.85
2022-07-31T19:40:56.754Z,8.32
2022-07-31T19:43:23.466Z,6.20
2022-07-31T19:46:09.435Z,5.00
2022-07-31T19:48:38.170Z,6.72
2022-07-31T19:51:05.095Z,3.97
2022-07-31T19:53:31.813Z,5.88
2022-07-31T19:56:00.334Z,5.72
2022-07-31T19:58:27.091Z,3.13
2022-07-31T20:00:53.881Z,5.95
2022-07-31T20:03:20.701Z,3.90
2022-07-31T20:05:47.492Z,6.57
2022-07-31T20:08:14.227Z,7.47
2022-07-31T20:10:40.935Z,7.53
2022-07-31T20:13:07.626Z,7.40
2022-07-31T20:15:51.452Z,7.15
2022-07-31T20:18:29.660Z,9.80
2022-07-31T20:21:00.299Z,5.68
2022-07-31T20:23:27.690Z,5.45
2022-07-31T20:25:55.037Z,8.45
2022-07-31T20:28:21.817Z,6.53
2022-07-31T20:30:48.827Z,10.25
2022-07-31T20:33:18.993Z,5.95
2022-07-31T20:35:48.824Z,6.32
2022-07-31T20:38:21.669Z,3.75
2022-07-31T20:40:53.776Z,4.03
2022-07-31T20:43:27.050Z,4.80
2022-07-31T20:45:57.444Z,3.88
2022-07-31T20:48:31.013Z,4.10
2022-07-31T20:50:59.622Z,5.03
2022-07-31T20:53:27.005Z,5.18
2022-07-31T20:55:53.868Z,4.60
2022-07-31T20:58:22.177Z,4.15
2022-07-31T21:00:50.308Z,3.92
2022-07-31T21:03:18.667Z,3.75
2022-07-31T21:05:46.079Z,3.53
2022-07-31T21:08:12.836Z,2.83
2022-07-31T21:10:40.095Z,3.47
2022-07-31T21:13:06.924Z,4.53
2022-07-31T21:15:44.124Z,3.78
2022-07-31T21:18:19.802Z,3.05
2022-07-31T21:20:51.710Z,5.40
2022-07-31T21:23:24.141Z,5.05
2022-07-31T21:25:56.667Z,4.20
2022-07-31T21:28:25.127Z,5.35
2022-07-31T21:30:56.260Z,5.63
2022-07-31T21:33:27.358Z,5.45
2022-07-31T21:35:57.593Z,3.80
2022-07-31T21:38:24.906Z,8.77
2022-07-31T21:40:53.477Z,7.32
2022-07-31T21:43:22.689Z,4.47
2022-07-31T21:45:57.245Z,5.38
2022-07-31T21:48:29.002Z,4.88
2022-07-31T21:50:55.950Z,6.95
2022-07-31T21:53:24.338Z,2.95
2022-07-31T21:55:51.383Z,4.70
2022-07-31T21:58:18.560Z,3.60
2022-07-31T22:00:45.767Z,3.85
2022-07-31T22:03:12.635Z,4.70
2022-07-31T22:05:58.216Z,5.47
2022-07-31T22:08:24.920Z,2.13
2022-07-31T22:10:52.600Z,3.88
2022-07-31T22:13:19.979Z,4.50
2022-07-31T22:15:58.169Z,3.00
2022-07-31T22:18:28.781Z,3.40
2022-07-31T22:20:56.048Z,5.13
2022-07-31T22:23:23.141Z,2.90
2022-07-31T22:25:50.159Z,4.40
2022-07-31T22:28:22.350Z,4.20
2022-07-31T22:30:49.468Z,3.80
2022-07-31T22:33:16.583Z,3.22
2022-07-31T22:35:43.637Z,5.85
2022-07-31T22:38:13.703Z,6.68
2022-07-31T22:40:40.512Z,6.78
2022-07-31T22:44:11.505Z,5.60
2022-07-31T22:46:00.302Z,7.75
2022-07-31T22:48:28.074Z,4.32
2022-07-31T22:50:55.770Z,2.97
2022-07-31T22:53:23.868Z,4.07
2022-07-31T22:55:53.749Z,5.57
2022-07-31T22:58:20.828Z,3.10
2022-07-31T23:00:48.256Z,3.13
2022-07-31T23:03:15.148Z,5.43
2022-07-31T23:06:02.548Z,2.42
2022-07-31T23:08:28.736Z,6.22
2022-07-31T23:10:55.454Z,3.33
2022-07-31T23:13:22.177Z,4.75
2022-07-31T23:15:48.953Z,4.03
2022-07-31T23:18:15.648Z,3.63
2022-07-31T23:20:42.343Z,4.45
2022-07-31T23:23:09.093Z,3.30
2022-07-31T23:25:35.785Z,3.33
2022-07-31T23:28:02.514Z,3.88
2022-07-31T23:30:29.220Z,2.92
2022-07-31T23:32:55.907Z,3.50
2022-07-31T23:35:22.609Z,4.82
2022-07-31T23:37:49.463Z,4.93
2022-07-31T23:40:16.181Z,8.63
2022-07-31T23:42:42.887Z,2.90
2022-07-31T23:45:12.406Z,4.10
2022-07-31T23:47:45.859Z,3.85
2022-07-31T23:50:14.827Z,5.60
2022-07-31T23:52:45.192Z,4.65
2022-07-31T23:55:12.824Z,3.38
2022-07-31T23:57:40.254Z,3.65
